Airfield :







YOU CAN JOIN US ON...

 
LOGIN :

Register | Disclaimer

   EN    FR    IT 

 









Legend :    VFR   Marginal VFR   IFR   Intensive IFR   Very Intensive IFR
Visi :
Ceiling :
>= 8 km
>= 3000ft
5 to 8 km
1000 to 3000 ft
1500m to 5 km
500 to 1000 ft
800 to 1500m
200 to 500 ft
< 800m
< 200 ft
Symbols :   Thunderstorms  Fog  Heavy snow  Heavy precipitations  Wind > 20 kt






- Airport Elevation : 193 ft
- IATA code : ZBF


CZBF - Bathurst

CURRENT METAR :
  • 150300Z AUTO 36003KT 5/8SM -RA BR VV003 01/01 A2931 RMK PRESFR SLP928

EXPIRED METARs :
  • 150200Z AUTO 02005KT 3/4SM -RA BR VV004 01/01 A2936 RMK PRESFR SLP946
  • 150151Z AUTO 02006KT 3/4SM -RA BR VV004 01/01 A2936 RMK PRESFR SLP948
  • 150100Z AUTO 02005KT 340V050 1 1/4SM -RA BR OVC006 01/01 A2943 RMK PRESFR SLP970
  • 150058Z AUTO 02005KT 340V050 1 1/4SM -RA BR SCT004 OVC008 01/01 A2943 RMK PRESFR SLP971
  • 150035Z AUTO 05005KT 1 1/4SM -RA -UP BR BKN006 OVC009 02/01 A2946 RMK PRESFR SLP982
  • 150026Z AUTO 05006KT 030V100 1 1/4SM -RA -UP BR BKN006 OVC009 02/01 A2948 RMK PRESFR SLP988

TAF AMD TAF CZBF
Valid from the 15 at 02:00 until the 15 at 04:00 UTC


150207Z 1502/1504 VRB03KT 3/4SM -RA BR VV004
TEMPO 1502/1504 1SM -RASN BR RMK FCST BASED ON AUTO OBS. NXT FCST WILL BE ISSUED AT 150945Z



MET'MAP, your aeronautical weather chart ! - Copyright ORBIFLY December 2007 - Disclaimer

ORBIFLY MET'MAP TEAM :

Programming & Development : Alexandra Zaïnal
Concept & original design : Baudouin d'Aumeries
Assistance for programming : Marc-Olivier Méhu
Technical & hardware support : Manuel Goepfert

Contact : metmap@orbifly.com




SOURCES & CREDITS :

   NOAA